sensor_id;sensor_type;location;lat;lon;timestamp;temperature;humidity
28773;DHT22;15925;51.222;5.678;2023-08-06T00:00:22;17.40;99.90
28773;DHT22;15925;51.222;5.678;2023-08-06T00:02:49;17.40;99.90
28773;DHT22;15925;51.222;5.678;2023-08-06T00:05:15;17.40;99.90
28773;DHT22;15925;51.222;5.678;2023-08-06T00:07:49;17.40;99.90
28773;DHT22;15925;51.222;5.678;2023-08-06T00:10:16;17.30;99.90
28773;DHT22;15925;51.222;5.678;2023-08-06T00:12:41;17.40;99.90
28773;DHT22;15925;51.222;5.678;2023-08-06T00:15:08;17.40;99.90
28773;DHT22;15925;51.222;5.678;2023-08-06T00:17:34;17.40;99.90
28773;DHT22;15925;51.222;5.678;2023-08-06T00:20:01;17.30;99.90
28773;DHT22;15925;51.222;5.678;2023-08-06T00:22:34;17.40;99.90
28773;DHT22;15925;51.222;5.678;2023-08-06T00:25:00;17.40;99.90
28773;DHT22;15925;51.222;5.678;2023-08-06T00:27:26;17.40;99.90
28773;DHT22;15925;51.222;5.678;2023-08-06T00:29:52;17.40;99.90
28773;DHT22;15925;51.222;5.678;2023-08-06T00:32:18;17.40;99.90
28773;DHT22;15925;51.222;5.678;2023-08-06T00:34:44;17.40;99.90
28773;DHT22;15925;51.222;5.678;2023-08-06T00:37:10;17.40;99.90
28773;DHT22;15925;51.222;5.678;2023-08-06T00:39:36;17.40;99.90
28773;DHT22;15925;51.222;5.678;2023-08-06T00:42:02;17.40;99.90
28773;DHT22;15925;51.222;5.678;2023-08-06T00:44:28;17.40;99.90
28773;DHT22;15925;51.222;5.678;2023-08-06T00:46:55;17.40;99.90
28773;DHT22;15925;51.222;5.678;2023-08-06T00:49:21;17.40;99.90
28773;DHT22;15925;51.222;5.678;2023-08-06T00:51:47;17.30;99.90
28773;DHT22;15925;51.222;5.678;2023-08-06T00:54:13;17.40;99.90
28773;DHT22;15925;51.222;5.678;2023-08-06T00:56:39;17.30;99.90
28773;DHT22;15925;51.222;5.678;2023-08-06T00:59:07;17.30;99.90
28773;DHT22;15925;51.222;5.678;2023-08-06T01:01:33;17.30;99.90
28773;DHT22;15925;51.222;5.678;2023-08-06T01:03:59;17.30;99.90
28773;DHT22;15925;51.222;5.678;2023-08-06T01:06:47;17.30;99.90
28773;DHT22;15925;51.222;5.678;2023-08-06T01:12:11;17.20;99.90
28773;DHT22;15925;51.222;5.678;2023-08-06T01:17:15;17.10;99.90
28773;DHT22;15925;51.222;5.678;2023-08-06T01:19:41;17.10;99.90
28773;DHT22;15925;51.222;5.678;2023-08-06T01:22:07;17.10;99.90
28773;DHT22;15925;51.222;5.678;2023-08-06T01:24:32;17.10;99.90
28773;DHT22;15925;51.222;5.678;2023-08-06T01:27:05;17.00;99.90
28773;DHT22;15925;51.222;5.678;2023-08-06T01:29:35;17.00;99.90
28773;DHT22;15925;51.222;5.678;2023-08-06T01:32:03;17.00;99.90
28773;DHT22;15925;51.222;5.678;2023-08-06T01:34:32;17.00;99.90
28773;DHT22;15925;51.222;5.678;2023-08-06T01:37:00;16.90;99.90
28773;DHT22;15925;51.222;5.678;2023-08-06T01:39:26;16.90;99.90
28773;DHT22;15925;51.222;5.678;2023-08-06T01:41:52;16.90;99.90
28773;DHT22;15925;51.222;5.678;2023-08-06T01:44:18;16.90;99.90
28773;DHT22;15925;51.222;5.678;2023-08-06T01:46:44;16.80;99.90
28773;DHT22;15925;51.222;5.678;2023-08-06T01:49:10;16.80;99.90
28773;DHT22;15925;51.222;5.678;2023-08-06T01:51:35;16.80;99.90
28773;DHT22;15925;51.222;5.678;2023-08-06T01:54:01;16.70;99.90
28773;DHT22;15925;51.222;5.678;2023-08-06T01:56:27;16.70;99.90
28773;DHT22;15925;51.222;5.678;2023-08-06T01:58:53;16.70;99.90
28773;DHT22;15925;51.222;5.678;2023-08-06T02:01:19;16.70;99.90
28773;DHT22;15925;51.222;5.678;2023-08-06T02:03:44;16.70;99.90
28773;DHT22;15925;51.222;5.678;2023-08-06T02:06:10;16.70;99.90
28773;DHT22;15925;51.222;5.678;2023-08-06T02:08:36;16.70;99.90
28773;DHT22;15925;51.222;5.678;2023-08-06T02:11:02;16.70;99.90
28773;DHT22;15925;51.222;5.678;2023-08-06T02:13:30;16.70;99.90
28773;DHT22;15925;51.222;5.678;2023-08-06T02:15:56;16.70;99.90
28773;DHT22;15925;51.222;5.678;2023-08-06T02:18:21;16.70;99.90
28773;DHT22;15925;51.222;5.678;2023-08-06T02:20:57;16.70;99.90
28773;DHT22;15925;51.222;5.678;2023-08-06T02:23:23;16.70;99.90
28773;DHT22;15925;51.222;5.678;2023-08-06T02:26:00;16.70;99.90
28773;DHT22;15925;51.222;5.678;2023-08-06T02:28:27;16.70;99.90
28773;DHT22;15925;51.222;5.678;2023-08-06T02:30:53;16.70;99.90
28773;DHT22;15925;51.222;5.678;2023-08-06T02:33:19;16.70;99.90
28773;DHT22;15925;51.222;5.678;2023-08-06T02:35:44;16.70;99.90
28773;DHT22;15925;51.222;5.678;2023-08-06T02:38:10;16.70;99.90
28773;DHT22;15925;51.222;5.678;2023-08-06T02:40:36;16.70;99.90
28773;DHT22;15925;51.222;5.678;2023-08-06T02:43:02;16.70;99.90
28773;DHT22;15925;51.222;5.678;2023-08-06T02:45:29;16.70;99.90
28773;DHT22;15925;51.222;5.678;2023-08-06T02:47:55;16.70;99.90
28773;DHT22;15925;51.222;5.678;2023-08-06T02:50:20;16.70;99.90
28773;DHT22;15925;51.222;5.678;2023-08-06T02:52:46;16.70;99.90
28773;DHT22;15925;51.222;5.678;2023-08-06T02:55:12;16.70;99.90
28773;DHT22;15925;51.222;5.678;2023-08-06T02:57:42;16.70;99.90
28773;DHT22;15925;51.222;5.678;2023-08-06T03:00:08;16.70;99.90
28773;DHT22;15925;51.222;5.678;2023-08-06T03:02:34;16.80;99.90
28773;DHT22;15925;51.222;5.678;2023-08-06T03:05:20;16.80;99.90
28773;DHT22;15925;51.222;5.678;2023-08-06T03:07:47;16.80;99.90
28773;DHT22;15925;51.222;5.678;2023-08-06T03:10:19;16.80;99.90
28773;DHT22;15925;51.222;5.678;2023-08-06T03:12:46;16.80;99.90
28773;DHT22;15925;51.222;5.678;2023-08-06T03:15:12;16.80;99.90
28773;DHT22;15925;51.222;5.678;2023-08-06T03:17:40;16.80;99.90
28773;DHT22;15925;51.222;5.678;2023-08-06T03:20:08;16.70;99.90
28773;DHT22;15925;51.222;5.678;2023-08-06T03:22:35;16.80;99.90
28773;DHT22;15925;51.222;5.678;2023-08-06T03:25:01;16.80;99.90
28773;DHT22;15925;51.222;5.678;2023-08-06T03:27:27;16.80;99.90
28773;DHT22;15925;51.222;5.678;2023-08-06T03:29:53;16.80;99.90
28773;DHT22;15925;51.222;5.678;2023-08-06T03:32:22;16.80;99.90
28773;DHT22;15925;51.222;5.678;2023-08-06T03:34:48;16.80;99.90
28773;DHT22;15925;51.222;5.678;2023-08-06T03:37:15;16.80;99.90
28773;DHT22;15925;51.222;5.678;2023-08-06T03:39:41;16.80;99.90
28773;DHT22;15925;51.222;5.678;2023-08-06T03:42:07;16.80;99.90
28773;DHT22;15925;51.222;5.678;2023-08-06T03:44:33;16.80;99.90
28773;DHT22;15925;51.222;5.678;2023-08-06T03:46:59;16.80;99.90
28773;DHT22;15925;51.222;5.678;2023-08-06T03:49:25;16.80;99.90
28773;DHT22;15925;51.222;5.678;2023-08-06T03:51:51;16.80;99.90
28773;DHT22;15925;51.222;5.678;2023-08-06T03:54:17;16.80;99.90
28773;DHT22;15925;51.222;5.678;2023-08-06T03:56:43;16.80;99.90
28773;DHT22;15925;51.222;5.678;2023-08-06T03:59:08;16.80;99.90
28773;DHT22;15925;51.222;5.678;2023-08-06T04:01:34;16.80;99.90
28773;DHT22;15925;51.222;5.678;2023-08-06T04:04:00;16.80;99.90
28773;DHT22;15925;51.222;5.678;2023-08-06T04:06:26;16.80;99.90
28773;DHT22;15925;51.222;5.678;2023-08-06T04:08:52;16.80;99.90
28773;DHT22;15925;51.222;5.678;2023-08-06T04:11:17;16.80;99.90
28773;DHT22;15925;51.222;5.678;2023-08-06T04:13:43;16.80;99.90
28773;DHT22;15925;51.222;5.678;2023-08-06T04:16:10;16.80;99.90
28773;DHT22;15925;51.222;5.678;2023-08-06T04:18:36;16.80;99.90
28773;DHT22;15925;51.222;5.678;2023-08-06T04:21:02;16.70;99.90
28773;DHT22;15925;51.222;5.678;2023-08-06T04:23:28;16.70;99.90
28773;DHT22;15925;51.222;5.678;2023-08-06T04:25:58;16.70;99.90
28773;DHT22;15925;51.222;5.678;2023-08-06T04:28:28;16.70;99.90
28773;DHT22;15925;51.222;5.678;2023-08-06T04:30:54;16.60;99.90
28773;DHT22;15925;51.222;5.678;2023-08-06T04:33:23;16.60;99.90
28773;DHT22;15925;51.222;5.678;2023-08-06T04:35:54;16.60;99.90
28773;DHT22;15925;51.222;5.678;2023-08-06T04:38:25;16.70;99.90
28773;DHT22;15925;51.222;5.678;2023-08-06T04:40:52;16.70;99.90
28773;DHT22;15925;51.222;5.678;2023-08-06T04:43:19;16.70;99.90
28773;DHT22;15925;51.222;5.678;2023-08-06T04:45:47;16.70;99.90
28773;DHT22;15925;51.222;5.678;2023-08-06T04:48:13;16.50;99.90
28773;DHT22;15925;51.222;5.678;2023-08-06T04:50:44;16.40;99.90
28773;DHT22;15925;51.222;5.678;2023-08-06T04:53:09;16.50;99.90
28773;DHT22;15925;51.222;5.678;2023-08-06T04:55:35;16.60;99.90
28773;DHT22;15925;51.222;5.678;2023-08-06T04:58:01;16.60;99.90
28773;DHT22;15925;51.222;5.678;2023-08-06T05:00:27;16.60;99.90
28773;DHT22;15925;51.222;5.678;2023-08-06T05:02:52;16.60;99.90
28773;DHT22;15925;51.222;5.678;2023-08-06T05:05:18;16.50;99.90
28773;DHT22;15925;51.222;5.678;2023-08-06T05:07:47;16.60;99.90
28773;DHT22;15925;51.222;5.678;2023-08-06T05:10:13;16.70;99.90
28773;DHT22;15925;51.222;5.678;2023-08-06T05:12:39;16.70;99.90
28773;DHT22;15925;51.222;5.678;2023-08-06T05:15:05;16.60;99.90
28773;DHT22;15925;51.222;5.678;2023-08-06T05:17:31;16.60;99.90
28773;DHT22;15925;51.222;5.678;2023-08-06T05:19:57;16.60;99.90
28773;DHT22;15925;51.222;5.678;2023-08-06T05:22:23;16.60;99.90
28773;DHT22;15925;51.222;5.678;2023-08-06T05:24:48;16.60;99.90
28773;DHT22;15925;51.222;5.678;2023-08-06T05:27:14;16.60;99.90
28773;DHT22;15925;51.222;5.678;2023-08-06T05:29:40;16.40;99.90
28773;DHT22;15925;51.222;5.678;2023-08-06T05:32:06;16.30;99.90
28773;DHT22;15925;51.222;5.678;2023-08-06T05:34:32;16.40;99.90
28773;DHT22;15925;51.222;5.678;2023-08-06T05:36:57;16.20;99.90
28773;DHT22;15925;51.222;5.678;2023-08-06T05:39:23;16.20;99.90
28773;DHT22;15925;51.222;5.678;2023-08-06T05:41:49;16.20;99.90
28773;DHT22;15925;51.222;5.678;2023-08-06T05:44:15;16.20;99.90
28773;DHT22;15925;51.222;5.678;2023-08-06T05:46:41;16.20;99.90
28773;DHT22;15925;51.222;5.678;2023-08-06T05:49:07;16.10;99.90
28773;DHT22;15925;51.222;5.678;2023-08-06T05:51:33;16.00;99.90
28773;DHT22;15925;51.222;5.678;2023-08-06T05:53:59;16.10;99.90
28773;DHT22;15925;51.222;5.678;2023-08-06T05:56:24;16.10;99.90
28773;DHT22;15925;51.222;5.678;2023-08-06T05:58:50;16.00;99.90
28773;DHT22;15925;51.222;5.678;2023-08-06T06:01:18;16.00;99.90
28773;DHT22;15925;51.222;5.678;2023-08-06T06:03:44;16.00;99.90
28773;DHT22;15925;51.222;5.678;2023-08-06T06:06:10;16.10;99.90
28773;DHT22;15925;51.222;5.678;2023-08-06T06:08:36;16.10;99.90
28773;DHT22;15925;51.222;5.678;2023-08-06T06:11:01;16.20;99.90
28773;DHT22;15925;51.222;5.678;2023-08-06T06:13:27;16.00;99.90
28773;DHT22;15925;51.222;5.678;2023-08-06T06:15:56;16.00;99.90
28773;DHT22;15925;51.222;5.678;2023-08-06T06:18:22;16.00;99.90
28773;DHT22;15925;51.222;5.678;2023-08-06T06:20:48;16.00;99.90
28773;DHT22;15925;51.222;5.678;2023-08-06T06:23:14;16.10;99.90
28773;DHT22;15925;51.222;5.678;2023-08-06T06:25:43;16.10;99.90
28773;DHT22;15925;51.222;5.678;2023-08-06T06:28:09;16.10;99.90
28773;DHT22;15925;51.222;5.678;2023-08-06T06:30:35;16.00;99.90
28773;DHT22;15925;51.222;5.678;2023-08-06T06:33:01;15.90;99.90
28773;DHT22;15925;51.222;5.678;2023-08-06T06:35:27;15.90;99.90
28773;DHT22;15925;51.222;5.678;2023-08-06T06:37:53;15.80;99.90
28773;DHT22;15925;51.222;5.678;2023-08-06T06:40:19;15.90;99.90
28773;DHT22;15925;51.222;5.678;2023-08-06T06:42:45;15.80;99.90
28773;DHT22;15925;51.222;5.678;2023-08-06T06:45:12;15.80;99.90
28773;DHT22;15925;51.222;5.678;2023-08-06T06:47:38;15.90;99.90
28773;DHT22;15925;51.222;5.678;2023-08-06T06:50:04;16.00;99.90
28773;DHT22;15925;51.222;5.678;2023-08-06T06:52:29;16.00;99.90
28773;DHT22;15925;51.222;5.678;2023-08-06T06:54:55;16.00;99.90
28773;DHT22;15925;51.222;5.678;2023-08-06T06:57:21;16.10;99.90
28773;DHT22;15925;51.222;5.678;2023-08-06T06:59:47;16.10;99.90
28773;DHT22;15925;51.222;5.678;2023-08-06T07:02:12;16.10;99.90
28773;DHT22;15925;51.222;5.678;2023-08-06T07:04:38;16.10;99.90
28773;DHT22;15925;51.222;5.678;2023-08-06T07:07:04;16.00;99.90
28773;DHT22;15925;51.222;5.678;2023-08-06T07:09:30;16.00;99.90
28773;DHT22;15925;51.222;5.678;2023-08-06T07:11:56;16.10;99.90
28773;DHT22;15925;51.222;5.678;2023-08-06T07:14:22;16.10;99.90
28773;DHT22;15925;51.222;5.678;2023-08-06T07:16:48;16.10;99.90
28773;DHT22;15925;51.222;5.678;2023-08-06T07:19:14;16.10;99.90
28773;DHT22;15925;51.222;5.678;2023-08-06T07:21:40;16.00;99.90
28773;DHT22;15925;51.222;5.678;2023-08-06T07:24:06;16.00;99.90
28773;DHT22;15925;51.222;5.678;2023-08-06T07:26:32;16.00;99.90
28773;DHT22;15925;51.222;5.678;2023-08-06T07:28:57;15.70;99.90
28773;DHT22;15925;51.222;5.678;2023-08-06T07:31:23;15.40;99.90
28773;DHT22;15925;51.222;5.678;2023-08-06T07:33:49;15.10;99.90
28773;DHT22;15925;51.222;5.678;2023-08-06T07:36:15;14.90;99.90
28773;DHT22;15925;51.222;5.678;2023-08-06T07:38:41;14.80;99.90
28773;DHT22;15925;51.222;5.678;2023-08-06T07:41:07;14.70;99.90
28773;DHT22;15925;51.222;5.678;2023-08-06T07:43:33;14.60;99.90
28773;DHT22;15925;51.222;5.678;2023-08-06T07:45:59;14.60;99.90
28773;DHT22;15925;51.222;5.678;2023-08-06T07:48:29;14.50;99.90
28773;DHT22;15925;51.222;5.678;2023-08-06T07:50:55;14.60;99.90
28773;DHT22;15925;51.222;5.678;2023-08-06T07:53:21;14.60;99.90
28773;DHT22;15925;51.222;5.678;2023-08-06T07:55:51;14.60;99.90
28773;DHT22;15925;51.222;5.678;2023-08-06T07:58:18;14.60;99.90
28773;DHT22;15925;51.222;5.678;2023-08-06T08:00:45;14.60;99.90
28773;DHT22;15925;51.222;5.678;2023-08-06T08:03:20;14.60;99.90
28773;DHT22;15925;51.222;5.678;2023-08-06T08:05:45;14.60;99.90
28773;DHT22;15925;51.222;5.678;2023-08-06T08:08:12;14.60;99.90
28773;DHT22;15925;51.222;5.678;2023-08-06T08:10:38;14.60;99.90
28773;DHT22;15925;51.222;5.678;2023-08-06T08:13:04;14.50;99.90
28773;DHT22;15925;51.222;5.678;2023-08-06T08:15:31;14.60;99.90
28773;DHT22;15925;51.222;5.678;2023-08-06T08:17:58;14.50;99.90
28773;DHT22;15925;51.222;5.678;2023-08-06T08:20:24;14.50;99.90
28773;DHT22;15925;51.222;5.678;2023-08-06T08:22:50;14.40;99.90
28773;DHT22;15925;51.222;5.678;2023-08-06T08:25:16;14.40;99.90
28773;DHT22;15925;51.222;5.678;2023-08-06T08:27:42;14.50;99.90
28773;DHT22;15925;51.222;5.678;2023-08-06T08:30:08;14.40;99.90
28773;DHT22;15925;51.222;5.678;2023-08-06T08:32:34;14.50;99.90
28773;DHT22;15925;51.222;5.678;2023-08-06T08:35:00;14.50;99.90
28773;DHT22;15925;51.222;5.678;2023-08-06T08:37:25;14.50;99.90
28773;DHT22;15925;51.222;5.678;2023-08-06T08:39:51;14.40;99.90
28773;DHT22;15925;51.222;5.678;2023-08-06T08:42:18;14.50;99.90
28773;DHT22;15925;51.222;5.678;2023-08-06T08:44:44;14.40;99.90
28773;DHT22;15925;51.222;5.678;2023-08-06T08:47:10;14.40;99.90
28773;DHT22;15925;51.222;5.678;2023-08-06T08:49:37;14.40;99.90
28773;DHT22;15925;51.222;5.678;2023-08-06T08:52:04;14.40;99.90
28773;DHT22;15925;51.222;5.678;2023-08-06T08:54:33;14.40;99.90
28773;DHT22;15925;51.222;5.678;2023-08-06T08:56:59;14.40;99.90
28773;DHT22;15925;51.222;5.678;2023-08-06T08:59:26;14.40;99.90
28773;DHT22;15925;51.222;5.678;2023-08-06T09:01:52;14.40;99.90
28773;DHT22;15925;51.222;5.678;2023-08-06T09:04:19;14.40;99.90
28773;DHT22;15925;51.222;5.678;2023-08-06T09:06:51;14.40;99.90
28773;DHT22;15925;51.222;5.678;2023-08-06T09:09:25;14.40;99.90
28773;DHT22;15925;51.222;5.678;2023-08-06T09:11:51;14.40;99.90
28773;DHT22;15925;51.222;5.678;2023-08-06T09:14:18;14.40;99.90
28773;DHT22;15925;51.222;5.678;2023-08-06T09:16:44;14.40;99.90
28773;DHT22;15925;51.222;5.678;2023-08-06T09:19:11;14.40;99.90
28773;DHT22;15925;51.222;5.678;2023-08-06T09:21:41;14.50;99.90
28773;DHT22;15925;51.222;5.678;2023-08-06T09:24:11;14.40;99.90
28773;DHT22;15925;51.222;5.678;2023-08-06T09:26:41;14.40;99.90
28773;DHT22;15925;51.222;5.678;2023-08-06T09:29:08;14.50;99.90
28773;DHT22;15925;51.222;5.678;2023-08-06T09:31:47;14.50;99.90
28773;DHT22;15925;51.222;5.678;2023-08-06T09:34:20;14.50;99.90
28773;DHT22;15925;51.222;5.678;2023-08-06T09:36:51;14.50;99.90
28773;DHT22;15925;51.222;5.678;2023-08-06T09:39:18;14.50;99.90
28773;DHT22;15925;51.222;5.678;2023-08-06T09:41:45;14.50;99.90
28773;DHT22;15925;51.222;5.678;2023-08-06T09:44:21;14.50;99.90
28773;DHT22;15925;51.222;5.678;2023-08-06T09:46:53;14.50;99.90
28773;DHT22;15925;51.222;5.678;2023-08-06T09:49:20;14.60;99.90
28773;DHT22;15925;51.222;5.678;2023-08-06T09:51:47;14.60;99.90
28773;DHT22;15925;51.222;5.678;2023-08-06T09:54:17;14.60;99.90
28773;DHT22;15925;51.222;5.678;2023-08-06T09:56:44;14.70;99.90
28773;DHT22;15925;51.222;5.678;2023-08-06T09:59:10;14.70;99.90
28773;DHT22;15925;51.222;5.678;2023-08-06T10:01:39;14.70;99.90
28773;DHT22;15925;51.222;5.678;2023-08-06T10:04:06;14.70;99.90
28773;DHT22;15925;51.222;5.678;2023-08-06T10:06:37;14.80;99.90
28773;DHT22;15925;51.222;5.678;2023-08-06T10:09:03;14.80;99.90
28773;DHT22;15925;51.222;5.678;2023-08-06T10:11:30;14.80;99.90
28773;DHT22;15925;51.222;5.678;2023-08-06T10:14:12;14.80;99.90
28773;DHT22;15925;51.222;5.678;2023-08-06T10:16:40;14.80;99.90
28773;DHT22;15925;51.222;5.678;2023-08-06T10:19:09;14.90;99.90
28773;DHT22;15925;51.222;5.678;2023-08-06T10:21:35;14.90;99.90
28773;DHT22;15925;51.222;5.678;2023-08-06T10:24:01;14.90;99.90
28773;DHT22;15925;51.222;5.678;2023-08-06T10:26:29;14.90;99.90
28773;DHT22;15925;51.222;5.678;2023-08-06T10:28:55;14.90;99.90
28773;DHT22;15925;51.222;5.678;2023-08-06T10:31:53;14.90;99.90
28773;DHT22;15925;51.222;5.678;2023-08-06T10:34:19;15.00;99.90
28773;DHT22;15925;51.222;5.678;2023-08-06T10:36:45;14.90;99.90
28773;DHT22;15925;51.222;5.678;2023-08-06T10:39:14;15.00;99.90
28773;DHT22;15925;51.222;5.678;2023-08-06T10:41:42;15.00;99.90
28773;DHT22;15925;51.222;5.678;2023-08-06T10:44:11;15.10;99.90
28773;DHT22;15925;51.222;5.678;2023-08-06T10:46:38;15.10;99.90
28773;DHT22;15925;51.222;5.678;2023-08-06T10:49:04;15.20;99.90
28773;DHT22;15925;51.222;5.678;2023-08-06T10:51:30;15.20;99.90
28773;DHT22;15925;51.222;5.678;2023-08-06T10:53:56;15.20;99.90
28773;DHT22;15925;51.222;5.678;2023-08-06T10:56:25;15.20;99.90
28773;DHT22;15925;51.222;5.678;2023-08-06T10:58:54;15.20;99.90
28773;DHT22;15925;51.222;5.678;2023-08-06T11:01:22;15.20;99.90
28773;DHT22;15925;51.222;5.678;2023-08-06T11:03:49;15.20;99.90
28773;DHT22;15925;51.222;5.678;2023-08-06T11:06:22;15.30;99.90
28773;DHT22;15925;51.222;5.678;2023-08-06T11:08:50;15.30;99.90
28773;DHT22;15925;51.222;5.678;2023-08-06T11:11:17;15.30;99.90
28773;DHT22;15925;51.222;5.678;2023-08-06T11:13:47;15.40;99.90
28773;DHT22;15925;51.222;5.678;2023-08-06T11:16:14;15.40;99.90
28773;DHT22;15925;51.222;5.678;2023-08-06T11:18:41;15.40;99.90
28773;DHT22;15925;51.222;5.678;2023-08-06T11:21:10;15.40;99.90
28773;DHT22;15925;51.222;5.678;2023-08-06T11:23:37;15.40;99.90
28773;DHT22;15925;51.222;5.678;2023-08-06T11:26:03;15.50;99.90
28773;DHT22;15925;51.222;5.678;2023-08-06T11:28:29;15.50;99.90
28773;DHT22;15925;51.222;5.678;2023-08-06T11:30:55;15.50;99.90
28773;DHT22;15925;51.222;5.678;2023-08-06T11:33:25;15.60;99.90
28773;DHT22;15925;51.222;5.678;2023-08-06T11:35:56;15.60;99.90
28773;DHT22;15925;51.222;5.678;2023-08-06T11:38:28;15.60;99.90
28773;DHT22;15925;51.222;5.678;2023-08-06T11:40:54;15.60;99.90
28773;DHT22;15925;51.222;5.678;2023-08-06T11:43:20;15.70;99.90
28773;DHT22;15925;51.222;5.678;2023-08-06T11:45:48;15.80;99.90
28773;DHT22;15925;51.222;5.678;2023-08-06T11:48:14;15.80;99.90
28773;DHT22;15925;51.222;5.678;2023-08-06T11:50:40;15.80;99.90
28773;DHT22;15925;51.222;5.678;2023-08-06T11:53:06;15.80;99.90
28773;DHT22;15925;51.222;5.678;2023-08-06T11:55:32;15.90;99.90
28773;DHT22;15925;51.222;5.678;2023-08-06T11:58:02;15.90;99.90
28773;DHT22;15925;51.222;5.678;2023-08-06T12:00:29;16.00;99.90
28773;DHT22;15925;51.222;5.678;2023-08-06T12:02:54;16.00;99.90
28773;DHT22;15925;51.222;5.678;2023-08-06T12:05:22;16.00;99.90
28773;DHT22;15925;51.222;5.678;2023-08-06T12:07:52;16.10;99.90
28773;DHT22;15925;51.222;5.678;2023-08-06T12:10:19;16.20;99.90
28773;DHT22;15925;51.222;5.678;2023-08-06T12:12:46;16.20;99.90
28773;DHT22;15925;51.222;5.678;2023-08-06T12:15:13;16.20;99.90
28773;DHT22;15925;51.222;5.678;2023-08-06T12:17:40;16.30;99.90
28773;DHT22;15925;51.222;5.678;2023-08-06T12:20:06;16.40;99.90
28773;DHT22;15925;51.222;5.678;2023-08-06T12:22:34;16.40;99.90
28773;DHT22;15925;51.222;5.678;2023-08-06T12:25:07;16.40;99.90
28773;DHT22;15925;51.222;5.678;2023-08-06T12:27:37;16.40;99.90
28773;DHT22;15925;51.222;5.678;2023-08-06T12:30:04;16.40;99.90
28773;DHT22;15925;51.222;5.678;2023-08-06T12:32:30;16.30;99.90
28773;DHT22;15925;51.222;5.678;2023-08-06T12:34:56;16.10;99.90
28773;DHT22;15925;51.222;5.678;2023-08-06T12:37:22;16.20;99.90
28773;DHT22;15925;51.222;5.678;2023-08-06T12:39:48;16.20;99.90
28773;DHT22;15925;51.222;5.678;2023-08-06T12:42:14;16.10;99.90
28773;DHT22;15925;51.222;5.678;2023-08-06T12:44:40;16.10;99.90
28773;DHT22;15925;51.222;5.678;2023-08-06T12:47:07;16.20;99.90
28773;DHT22;15925;51.222;5.678;2023-08-06T12:49:33;16.10;99.90
28773;DHT22;15925;51.222;5.678;2023-08-06T12:51:59;16.10;99.90
28773;DHT22;15925;51.222;5.678;2023-08-06T12:54:30;16.00;99.90
28773;DHT22;15925;51.222;5.678;2023-08-06T12:57:02;16.10;99.90
28773;DHT22;15925;51.222;5.678;2023-08-06T12:59:27;16.10;99.90
28773;DHT22;15925;51.222;5.678;2023-08-06T13:01:53;16.10;99.90
28773;DHT22;15925;51.222;5.678;2023-08-06T13:04:19;16.10;99.90
28773;DHT22;15925;51.222;5.678;2023-08-06T13:06:45;16.20;99.90
28773;DHT22;15925;51.222;5.678;2023-08-06T13:09:11;16.10;99.90
28773;DHT22;15925;51.222;5.678;2023-08-06T13:11:38;16.10;99.90
28773;DHT22;15925;51.222;5.678;2023-08-06T13:14:06;16.10;99.90
28773;DHT22;15925;51.222;5.678;2023-08-06T13:16:33;16.10;99.90
28773;DHT22;15925;51.222;5.678;2023-08-06T13:18:59;16.10;99.90
28773;DHT22;15925;51.222;5.678;2023-08-06T13:21:30;16.20;99.90
28773;DHT22;15925;51.222;5.678;2023-08-06T13:23:56;16.10;99.90
28773;DHT22;15925;51.222;5.678;2023-08-06T13:26:22;16.20;99.90
28773;DHT22;15925;51.222;5.678;2023-08-06T13:28:48;16.20;99.90
28773;DHT22;15925;51.222;5.678;2023-08-06T13:31:15;16.20;99.90
28773;DHT22;15925;51.222;5.678;2023-08-06T13:33:40;16.30;99.90
28773;DHT22;15925;51.222;5.678;2023-08-06T13:36:07;16.40;99.90
28773;DHT22;15925;51.222;5.678;2023-08-06T13:38:33;16.30;99.90
28773;DHT22;15925;51.222;5.678;2023-08-06T13:40:59;16.40;99.90
28773;DHT22;15925;51.222;5.678;2023-08-06T13:43:25;16.40;99.90
28773;DHT22;15925;51.222;5.678;2023-08-06T13:45:50;16.40;99.90
28773;DHT22;15925;51.222;5.678;2023-08-06T13:48:16;16.50;99.90
28773;DHT22;15925;51.222;5.678;2023-08-06T13:50:42;16.50;99.90
28773;DHT22;15925;51.222;5.678;2023-08-06T13:53:08;16.60;99.90
28773;DHT22;15925;51.222;5.678;2023-08-06T13:55:33;16.50;99.90
28773;DHT22;15925;51.222;5.678;2023-08-06T13:57:59;16.50;99.90
28773;DHT22;15925;51.222;5.678;2023-08-06T14:00:25;16.50;99.90
28773;DHT22;15925;51.222;5.678;2023-08-06T14:02:51;16.40;99.90
28773;DHT22;15925;51.222;5.678;2023-08-06T14:05:17;16.30;99.90
28773;DHT22;15925;51.222;5.678;2023-08-06T14:07:43;16.30;99.90
28773;DHT22;15925;51.222;5.678;2023-08-06T14:10:08;16.20;99.90
28773;DHT22;15925;51.222;5.678;2023-08-06T14:12:35;16.40;99.90
28773;DHT22;15925;51.222;5.678;2023-08-06T14:15:01;16.40;99.90
28773;DHT22;15925;51.222;5.678;2023-08-06T14:17:28;16.40;99.90
28773;DHT22;15925;51.222;5.678;2023-08-06T14:19:54;16.40;99.90
28773;DHT22;15925;51.222;5.678;2023-08-06T14:22:21;16.30;99.90
28773;DHT22;15925;51.222;5.678;2023-08-06T14:24:47;16.30;99.90
28773;DHT22;15925;51.222;5.678;2023-08-06T14:27:12;16.30;99.90
28773;DHT22;15925;51.222;5.678;2023-08-06T14:29:38;16.20;99.90
28773;DHT22;15925;51.222;5.678;2023-08-06T14:32:04;16.20;99.90
28773;DHT22;15925;51.222;5.678;2023-08-06T14:34:30;16.20;99.90
28773;DHT22;15925;51.222;5.678;2023-08-06T14:36:56;16.10;99.90
28773;DHT22;15925;51.222;5.678;2023-08-06T14:39:22;16.20;99.90
28773;DHT22;15925;51.222;5.678;2023-08-06T14:41:48;16.20;99.90
28773;DHT22;15925;51.222;5.678;2023-08-06T14:44:14;16.30;99.90
28773;DHT22;15925;51.222;5.678;2023-08-06T14:46:39;16.30;99.90
28773;DHT22;15925;51.222;5.678;2023-08-06T14:49:05;16.30;99.90
28773;DHT22;15925;51.222;5.678;2023-08-06T14:51:31;16.30;99.90
28773;DHT22;15925;51.222;5.678;2023-08-06T14:53:57;16.30;99.90
28773;DHT22;15925;51.222;5.678;2023-08-06T14:56:22;16.30;99.90
28773;DHT22;15925;51.222;5.678;2023-08-06T14:58:49;16.40;99.90
28773;DHT22;15925;51.222;5.678;2023-08-06T15:01:15;16.40;99.90
28773;DHT22;15925;51.222;5.678;2023-08-06T15:03:40;16.30;99.90
28773;DHT22;15925;51.222;5.678;2023-08-06T15:06:06;16.40;99.90
28773;DHT22;15925;51.222;5.678;2023-08-06T15:08:33;16.30;99.90
28773;DHT22;15925;51.222;5.678;2023-08-06T15:10:59;16.30;99.90
28773;DHT22;15925;51.222;5.678;2023-08-06T15:13:28;16.40;99.90
28773;DHT22;15925;51.222;5.678;2023-08-06T15:15:54;16.40;99.90
28773;DHT22;15925;51.222;5.678;2023-08-06T15:18:20;16.40;99.90
28773;DHT22;15925;51.222;5.678;2023-08-06T15:20:46;16.40;99.90
28773;DHT22;15925;51.222;5.678;2023-08-06T15:23:12;16.40;99.90
28773;DHT22;15925;51.222;5.678;2023-08-06T15:25:38;16.40;99.90
28773;DHT22;15925;51.222;5.678;2023-08-06T15:28:04;16.30;99.90
28773;DHT22;15925;51.222;5.678;2023-08-06T15:30:30;16.40;99.90
28773;DHT22;15925;51.222;5.678;2023-08-06T15:32:56;16.40;99.90